sensor_id;sensor_type;location;lat;lon;timestamp;P1;durP1;ratioP1;P2;durP2;ratioP2
59786;SDS011;45672;51.612;5.536;2022-08-21T00:00:08;6.93;;;5.75;;
59786;SDS011;45672;51.612;5.536;2022-08-21T00:02:36;14.43;;;5.85;;
59786;SDS011;45672;51.612;5.536;2022-08-21T00:05:02;7.63;;;5.00;;
59786;SDS011;45672;51.612;5.536;2022-08-21T00:07:28;9.68;;;5.43;;
59786;SDS011;45672;51.612;5.536;2022-08-21T00:09:54;9.10;;;5.50;;
59786;SDS011;45672;51.612;5.536;2022-08-21T00:12:19;12.55;;;5.50;;
59786;SDS011;45672;51.612;5.536;2022-08-21T00:14:44;8.35;;;5.70;;
59786;SDS011;45672;51.612;5.536;2022-08-21T00:17:10;6.60;;;5.60;;
59786;SDS011;45672;51.612;5.536;2022-08-21T00:19:35;10.30;;;5.60;;
59786;SDS011;45672;51.612;5.536;2022-08-21T00:22:00;9.75;;;5.68;;
59786;SDS011;45672;51.612;5.536;2022-08-21T00:24:26;11.57;;;6.40;;
59786;SDS011;45672;51.612;5.536;2022-08-21T00:26:52;9.55;;;5.32;;
59786;SDS011;45672;51.612;5.536;2022-08-21T00:29:17;10.15;;;5.68;;
59786;SDS011;45672;51.612;5.536;2022-08-21T00:31:43;11.82;;;5.40;;
59786;SDS011;45672;51.612;5.536;2022-08-21T00:34:09;5.80;;;5.22;;
59786;SDS011;45672;51.612;5.536;2022-08-21T00:36:36;8.90;;;5.80;;
59786;SDS011;45672;51.612;5.536;2022-08-21T00:39:02;7.57;;;5.60;;
59786;SDS011;45672;51.612;5.536;2022-08-21T00:41:29;7.78;;;5.40;;
59786;SDS011;45672;51.612;5.536;2022-08-21T00:43:54;7.13;;;5.43;;
59786;SDS011;45672;51.612;5.536;2022-08-21T00:46:20;10.82;;;5.78;;
59786;SDS011;45672;51.612;5.536;2022-08-21T00:48:46;7.25;;;5.47;;
59786;SDS011;45672;51.612;5.536;2022-08-21T00:51:13;9.15;;;5.75;;
59786;SDS011;45672;51.612;5.536;2022-08-21T00:53:47;9.68;;;5.45;;
59786;SDS011;45672;51.612;5.536;2022-08-21T00:56:14;8.93;;;5.88;;
59786;SDS011;45672;51.612;5.536;2022-08-21T00:58:39;12.57;;;6.22;;
59786;SDS011;45672;51.612;5.536;2022-08-21T01:01:07;10.40;;;6.28;;
59786;SDS011;45672;51.612;5.536;2022-08-21T01:03:34;9.30;;;5.63;;
59786;SDS011;45672;51.612;5.536;2022-08-21T01:06:00;10.82;;;6.38;;
59786;SDS011;45672;51.612;5.536;2022-08-21T01:08:29;13.48;;;5.55;;
59786;SDS011;45672;51.612;5.536;2022-08-21T01:10:55;6.05;;;5.45;;
59786;SDS011;45672;51.612;5.536;2022-08-21T01:13:22;7.68;;;5.85;;
59786;SDS011;45672;51.612;5.536;2022-08-21T01:15:49;14.30;;;6.00;;
59786;SDS011;45672;51.612;5.536;2022-08-21T01:18:20;8.00;;;5.93;;
59786;SDS011;45672;51.612;5.536;2022-08-21T01:21:00;9.40;;;5.68;;
59786;SDS011;45672;51.612;5.536;2022-08-21T01:23:27;11.60;;;5.60;;
59786;SDS011;45672;51.612;5.536;2022-08-21T01:25:53;8.88;;;5.50;;
59786;SDS011;45672;51.612;5.536;2022-08-21T01:28:18;8.77;;;5.60;;
59786;SDS011;45672;51.612;5.536;2022-08-21T01:30:45;11.30;;;6.30;;
59786;SDS011;45672;51.612;5.536;2022-08-21T01:33:11;7.65;;;5.88;;
59786;SDS011;45672;51.612;5.536;2022-08-21T01:35:36;10.23;;;5.72;;
59786;SDS011;45672;51.612;5.536;2022-08-21T01:38:02;11.00;;;5.90;;
59786;SDS011;45672;51.612;5.536;2022-08-21T01:40:28;9.55;;;6.07;;
59786;SDS011;45672;51.612;5.536;2022-08-21T01:42:53;9.35;;;6.18;;
59786;SDS011;45672;51.612;5.536;2022-08-21T01:45:19;10.30;;;6.00;;
59786;SDS011;45672;51.612;5.536;2022-08-21T01:47:45;12.02;;;6.00;;
59786;SDS011;45672;51.612;5.536;2022-08-21T01:50:11;8.30;;;5.78;;
59786;SDS011;45672;51.612;5.536;2022-08-21T01:52:38;6.80;;;6.05;;
59786;SDS011;45672;51.612;5.536;2022-08-21T01:55:05;8.93;;;6.10;;
59786;SDS011;45672;51.612;5.536;2022-08-21T01:57:32;9.30;;;6.38;;
59786;SDS011;45672;51.612;5.536;2022-08-21T01:59:58;8.15;;;6.75;;
59786;SDS011;45672;51.612;5.536;2022-08-21T02:02:23;8.18;;;6.55;;
59786;SDS011;45672;51.612;5.536;2022-08-21T02:04:49;7.68;;;5.90;;
59786;SDS011;45672;51.612;5.536;2022-08-21T02:07:14;8.13;;;6.90;;
59786;SDS011;45672;51.612;5.536;2022-08-21T02:09:40;11.50;;;6.20;;
59786;SDS011;45672;51.612;5.536;2022-08-21T02:12:07;9.40;;;6.57;;
59786;SDS011;45672;51.612;5.536;2022-08-21T02:14:32;8.77;;;5.72;;
59786;SDS011;45672;51.612;5.536;2022-08-21T02:16:58;9.77;;;6.20;;
59786;SDS011;45672;51.612;5.536;2022-08-21T02:19:24;8.82;;;6.00;;
59786;SDS011;45672;51.612;5.536;2022-08-21T02:21:49;9.13;;;6.47;;
59786;SDS011;45672;51.612;5.536;2022-08-21T02:24:14;14.20;;;6.80;;
59786;SDS011;45672;51.612;5.536;2022-08-21T02:26:39;13.27;;;6.50;;
59786;SDS011;45672;51.612;5.536;2022-08-21T02:29:05;10.13;;;6.45;;
59786;SDS011;45672;51.612;5.536;2022-08-21T02:31:30;9.13;;;6.38;;
59786;SDS011;45672;51.612;5.536;2022-08-21T02:33:56;10.82;;;6.18;;
59786;SDS011;45672;51.612;5.536;2022-08-21T02:36:21;11.32;;;6.40;;
59786;SDS011;45672;51.612;5.536;2022-08-21T02:38:47;9.95;;;7.07;;
59786;SDS011;45672;51.612;5.536;2022-08-21T02:41:13;10.65;;;6.82;;
59786;SDS011;45672;51.612;5.536;2022-08-21T02:43:41;9.73;;;6.50;;
59786;SDS011;45672;51.612;5.536;2022-08-21T02:46:07;13.60;;;7.20;;
59786;SDS011;45672;51.612;5.536;2022-08-21T02:48:37;13.73;;;7.07;;
59786;SDS011;45672;51.612;5.536;2022-08-21T02:51:04;13.15;;;6.90;;
59786;SDS011;45672;51.612;5.536;2022-08-21T02:53:33;10.68;;;6.93;;
59786;SDS011;45672;51.612;5.536;2022-08-21T02:55:59;7.68;;;6.35;;
59786;SDS011;45672;51.612;5.536;2022-08-21T02:58:29;13.35;;;7.00;;
59786;SDS011;45672;51.612;5.536;2022-08-21T03:00:56;10.65;;;8.20;;
59786;SDS011;45672;51.612;5.536;2022-08-21T03:03:23;11.60;;;7.18;;
59786;SDS011;45672;51.612;5.536;2022-08-21T03:05:49;8.10;;;6.88;;
59786;SDS011;45672;51.612;5.536;2022-08-21T03:08:15;8.15;;;6.75;;
59786;SDS011;45672;51.612;5.536;2022-08-21T03:10:43;11.80;;;7.18;;
59786;SDS011;45672;51.612;5.536;2022-08-21T03:13:11;10.82;;;6.97;;
59786;SDS011;45672;51.612;5.536;2022-08-21T03:15:36;8.50;;;7.07;;
59786;SDS011;45672;51.612;5.536;2022-08-21T03:18:03;10.43;;;6.88;;
59786;SDS011;45672;51.612;5.536;2022-08-21T03:20:30;10.65;;;7.60;;
59786;SDS011;45672;51.612;5.536;2022-08-21T03:22:57;10.48;;;7.05;;
59786;SDS011;45672;51.612;5.536;2022-08-21T03:25:24;8.40;;;6.70;;
59786;SDS011;45672;51.612;5.536;2022-08-21T03:27:50;10.40;;;7.20;;
59786;SDS011;45672;51.612;5.536;2022-08-21T03:30:16;14.75;;;7.20;;
59786;SDS011;45672;51.612;5.536;2022-08-21T03:32:44;7.72;;;7.03;;
59786;SDS011;45672;51.612;5.536;2022-08-21T03:35:11;12.82;;;7.63;;
59786;SDS011;45672;51.612;5.536;2022-08-21T03:37:37;10.60;;;7.10;;
59786;SDS011;45672;51.612;5.536;2022-08-21T03:40:04;9.40;;;7.05;;
59786;SDS011;45672;51.612;5.536;2022-08-21T03:42:30;8.43;;;7.22;;
59786;SDS011;45672;51.612;5.536;2022-08-21T03:44:56;10.40;;;7.57;;
59786;SDS011;45672;51.612;5.536;2022-08-21T03:47:21;11.32;;;7.75;;
59786;SDS011;45672;51.612;5.536;2022-08-21T03:49:47;11.40;;;7.28;;
59786;SDS011;45672;51.612;5.536;2022-08-21T03:52:12;13.35;;;7.50;;
59786;SDS011;45672;51.612;5.536;2022-08-21T03:54:38;9.18;;;7.53;;
59786;SDS011;45672;51.612;5.536;2022-08-21T03:57:05;12.77;;;7.28;;
59786;SDS011;45672;51.612;5.536;2022-08-21T03:59:30;11.60;;;7.03;;
59786;SDS011;45672;51.612;5.536;2022-08-21T04:01:56;10.70;;;7.22;;
59786;SDS011;45672;51.612;5.536;2022-08-21T04:04:25;9.98;;;7.30;;
59786;SDS011;45672;51.612;5.536;2022-08-21T04:06:52;10.27;;;7.72;;
59786;SDS011;45672;51.612;5.536;2022-08-21T04:09:18;9.77;;;7.43;;
59786;SDS011;45672;51.612;5.536;2022-08-21T04:11:44;8.60;;;7.18;;
59786;SDS011;45672;51.612;5.536;2022-08-21T04:14:10;17.52;;;7.60;;
59786;SDS011;45672;51.612;5.536;2022-08-21T04:16:36;11.10;;;7.97;;
59786;SDS011;45672;51.612;5.536;2022-08-21T04:19:02;8.27;;;7.43;;
59786;SDS011;45672;51.612;5.536;2022-08-21T04:21:27;15.35;;;7.78;;
59786;SDS011;45672;51.612;5.536;2022-08-21T04:23:56;12.27;;;7.90;;
59786;SDS011;45672;51.612;5.536;2022-08-21T04:26:22;9.27;;;7.95;;
59786;SDS011;45672;51.612;5.536;2022-08-21T04:28:47;11.57;;;8.20;;
59786;SDS011;45672;51.612;5.536;2022-08-21T04:31:12;11.27;;;8.05;;
59786;SDS011;45672;51.612;5.536;2022-08-21T04:33:38;10.98;;;8.50;;
59786;SDS011;45672;51.612;5.536;2022-08-21T04:36:03;10.20;;;8.57;;
59786;SDS011;45672;51.612;5.536;2022-08-21T04:38:29;14.75;;;8.38;;
59786;SDS011;45672;51.612;5.536;2022-08-21T04:40:56;14.55;;;8.95;;
59786;SDS011;45672;51.612;5.536;2022-08-21T04:43:22;12.85;;;8.82;;
59786;SDS011;45672;51.612;5.536;2022-08-21T04:45:48;15.52;;;8.43;;
59786;SDS011;45672;51.612;5.536;2022-08-21T04:48:16;12.27;;;8.93;;
59786;SDS011;45672;51.612;5.536;2022-08-21T04:50:52;15.75;;;8.95;;
59786;SDS011;45672;51.612;5.536;2022-08-21T04:53:43;10.18;;;8.63;;
59786;SDS011;45672;51.612;5.536;2022-08-21T04:56:24;10.95;;;9.13;;
59786;SDS011;45672;51.612;5.536;2022-08-21T04:58:56;10.48;;;9.25;;
59786;SDS011;45672;51.612;5.536;2022-08-21T05:01:24;12.77;;;9.10;;
59786;SDS011;45672;51.612;5.536;2022-08-21T05:03:52;12.60;;;8.73;;
59786;SDS011;45672;51.612;5.536;2022-08-21T05:06:20;15.15;;;9.23;;
59786;SDS011;45672;51.612;5.536;2022-08-21T05:08:47;13.23;;;9.15;;
59786;SDS011;45672;51.612;5.536;2022-08-21T05:11:16;12.63;;;9.48;;
59786;SDS011;45672;51.612;5.536;2022-08-21T05:13:41;13.27;;;9.57;;
59786;SDS011;45672;51.612;5.536;2022-08-21T05:16:06;19.05;;;9.50;;
59786;SDS011;45672;51.612;5.536;2022-08-21T05:18:32;18.08;;;9.32;;
59786;SDS011;45672;51.612;5.536;2022-08-21T05:20:57;14.05;;;9.73;;
59786;SDS011;45672;51.612;5.536;2022-08-21T05:23:23;14.23;;;9.63;;
59786;SDS011;45672;51.612;5.536;2022-08-21T05:25:48;13.88;;;9.55;;
59786;SDS011;45672;51.612;5.536;2022-08-21T05:28:13;18.88;;;9.27;;
59786;SDS011;45672;51.612;5.536;2022-08-21T05:30:39;15.00;;;9.85;;
59786;SDS011;45672;51.612;5.536;2022-08-21T05:33:05;13.75;;;9.82;;
59786;SDS011;45672;51.612;5.536;2022-08-21T05:35:32;15.30;;;9.90;;
59786;SDS011;45672;51.612;5.536;2022-08-21T05:37:59;15.02;;;9.73;;
59786;SDS011;45672;51.612;5.536;2022-08-21T05:40:25;14.88;;;9.43;;
59786;SDS011;45672;51.612;5.536;2022-08-21T05:42:51;14.13;;;9.45;;
59786;SDS011;45672;51.612;5.536;2022-08-21T05:45:18;13.57;;;9.68;;
59786;SDS011;45672;51.612;5.536;2022-08-21T05:47:43;12.55;;;9.63;;
59786;SDS011;45672;51.612;5.536;2022-08-21T05:50:08;15.68;;;9.32;;
59786;SDS011;45672;51.612;5.536;2022-08-21T05:52:34;17.38;;;9.10;;
59786;SDS011;45672;51.612;5.536;2022-08-21T05:54:59;15.52;;;8.50;;
59786;SDS011;45672;51.612;5.536;2022-08-21T05:57:24;14.13;;;8.60;;
59786;SDS011;45672;51.612;5.536;2022-08-21T05:59:50;18.35;;;7.75;;
59786;SDS011;45672;51.612;5.536;2022-08-21T06:02:19;16.48;;;7.25;;
59786;SDS011;45672;51.612;5.536;2022-08-21T06:04:46;12.43;;;7.72;;
59786;SDS011;45672;51.612;5.536;2022-08-21T06:07:12;10.95;;;6.97;;
59786;SDS011;45672;51.612;5.536;2022-08-21T06:09:37;9.25;;;6.97;;
59786;SDS011;45672;51.612;5.536;2022-08-21T06:12:06;10.15;;;7.30;;
59786;SDS011;45672;51.612;5.536;2022-08-21T06:14:34;16.42;;;7.03;;
59786;SDS011;45672;51.612;5.536;2022-08-21T06:17:03;11.40;;;6.25;;
59786;SDS011;45672;51.612;5.536;2022-08-21T06:19:32;12.32;;;6.53;;
59786;SDS011;45672;51.612;5.536;2022-08-21T06:21:58;11.95;;;6.15;;
59786;SDS011;45672;51.612;5.536;2022-08-21T06:24:23;13.45;;;6.00;;
59786;SDS011;45672;51.612;5.536;2022-08-21T06:26:49;13.55;;;5.85;;
59786;SDS011;45672;51.612;5.536;2022-08-21T06:29:14;12.75;;;5.65;;
59786;SDS011;45672;51.612;5.536;2022-08-21T06:31:42;8.07;;;5.38;;
59786;SDS011;45672;51.612;5.536;2022-08-21T06:34:08;9.30;;;5.45;;
59786;SDS011;45672;51.612;5.536;2022-08-21T06:36:33;9.20;;;5.82;;
59786;SDS011;45672;51.612;5.536;2022-08-21T06:38:59;10.55;;;5.50;;
59786;SDS011;45672;51.612;5.536;2022-08-21T06:41:24;13.13;;;5.20;;
59786;SDS011;45672;51.612;5.536;2022-08-21T06:43:50;12.50;;;5.18;;
59786;SDS011;45672;51.612;5.536;2022-08-21T06:46:15;9.60;;;4.85;;
59786;SDS011;45672;51.612;5.536;2022-08-21T06:48:41;11.18;;;4.43;;
59786;SDS011;45672;51.612;5.536;2022-08-21T06:51:06;7.95;;;4.47;;
59786;SDS011;45672;51.612;5.536;2022-08-21T06:53:31;16.00;;;5.10;;
59786;SDS011;45672;51.612;5.536;2022-08-21T06:55:57;11.90;;;4.13;;
59786;SDS011;45672;51.612;5.536;2022-08-21T06:58:23;10.32;;;4.05;;
59786;SDS011;45672;51.612;5.536;2022-08-21T07:00:49;9.63;;;3.97;;
59786;SDS011;45672;51.612;5.536;2022-08-21T07:03:18;7.78;;;4.20;;
59786;SDS011;45672;51.612;5.536;2022-08-21T07:05:49;9.50;;;4.10;;
59786;SDS011;45672;51.612;5.536;2022-08-21T07:08:15;12.48;;;3.83;;
59786;SDS011;45672;51.612;5.536;2022-08-21T07:10:41;14.68;;;4.07;;
59786;SDS011;45672;51.612;5.536;2022-08-21T07:13:07;8.90;;;3.80;;
59786;SDS011;45672;51.612;5.536;2022-08-21T07:15:32;11.30;;;4.10;;
59786;SDS011;45672;51.612;5.536;2022-08-21T07:17:58;7.38;;;3.50;;
59786;SDS011;45672;51.612;5.536;2022-08-21T07:20:25;14.05;;;4.28;;
59786;SDS011;45672;51.612;5.536;2022-08-21T07:22:51;10.07;;;3.58;;
59786;SDS011;45672;51.612;5.536;2022-08-21T07:25:16;9.88;;;3.60;;
59786;SDS011;45672;51.612;5.536;2022-08-21T07:27:42;11.27;;;3.55;;
59786;SDS011;45672;51.612;5.536;2022-08-21T07:30:07;10.75;;;3.45;;
59786;SDS011;45672;51.612;5.536;2022-08-21T07:32:32;9.13;;;3.55;;
59786;SDS011;45672;51.612;5.536;2022-08-21T07:34:58;12.20;;;3.70;;
59786;SDS011;45672;51.612;5.536;2022-08-21T07:37:23;10.68;;;3.60;;
59786;SDS011;45672;51.612;5.536;2022-08-21T07:39:49;9.23;;;3.42;;
59786;SDS011;45672;51.612;5.536;2022-08-21T07:42:16;10.93;;;3.72;;
59786;SDS011;45672;51.612;5.536;2022-08-21T07:44:42;11.23;;;4.22;;
59786;SDS011;45672;51.612;5.536;2022-08-21T07:47:07;9.57;;;3.88;;
59786;SDS011;45672;51.612;5.536;2022-08-21T07:49:33;14.13;;;3.90;;
59786;SDS011;45672;51.612;5.536;2022-08-21T07:51:58;10.23;;;3.78;;
59786;SDS011;45672;51.612;5.536;2022-08-21T07:54:23;12.77;;;3.42;;
59786;SDS011;45672;51.612;5.536;2022-08-21T07:57:07;9.98;;;4.05;;
59786;SDS011;45672;51.612;5.536;2022-08-21T07:59:32;10.38;;;3.58;;
59786;SDS011;45672;51.612;5.536;2022-08-21T08:01:57;13.23;;;3.80;;
59786;SDS011;45672;51.612;5.536;2022-08-21T08:04:23;8.43;;;3.35;;
59786;SDS011;45672;51.612;5.536;2022-08-21T08:06:48;10.35;;;3.25;;
59786;SDS011;45672;51.612;5.536;2022-08-21T08:09:13;7.57;;;2.90;;
59786;SDS011;45672;51.612;5.536;2022-08-21T08:11:41;12.25;;;3.65;;
59786;SDS011;45672;51.612;5.536;2022-08-21T08:14:08;9.60;;;3.13;;
59786;SDS011;45672;51.612;5.536;2022-08-21T08:16:34;7.88;;;2.80;;
59786;SDS011;45672;51.612;5.536;2022-08-21T08:19:00;8.20;;;2.70;;
59786;SDS011;45672;51.612;5.536;2022-08-21T08:21:25;7.80;;;2.88;;
59786;SDS011;45672;51.612;5.536;2022-08-21T08:23:51;10.23;;;2.85;;
59786;SDS011;45672;51.612;5.536;2022-08-21T08:26:17;6.82;;;2.70;;
59786;SDS011;45672;51.612;5.536;2022-08-21T08:28:42;12.10;;;2.75;;
59786;SDS011;45672;51.612;5.536;2022-08-21T08:31:08;6.20;;;2.50;;
59786;SDS011;45672;51.612;5.536;2022-08-21T08:33:33;4.60;;;2.08;;
59786;SDS011;45672;51.612;5.536;2022-08-21T08:35:58;8.43;;;2.50;;
59786;SDS011;45672;51.612;5.536;2022-08-21T08:38:24;8.67;;;3.03;;
59786;SDS011;45672;51.612;5.536;2022-08-21T08:43:28;8.00;;;2.20;;
59786;SDS011;45672;51.612;5.536;2022-08-21T08:45:55;7.88;;;2.40;;
59786;SDS011;45672;51.612;5.536;2022-08-21T08:48:31;7.28;;;2.13;;
59786;SDS011;45672;51.612;5.536;2022-08-21T08:54:17;10.05;;;2.10;;
59786;SDS011;45672;51.612;5.536;2022-08-21T08:56:50;5.47;;;2.20;;
59786;SDS011;45672;51.612;5.536;2022-08-21T08:59:21;6.53;;;2.20;;
59786;SDS011;45672;51.612;5.536;2022-08-21T09:01:50;7.18;;;2.50;;
59786;SDS011;45672;51.612;5.536;2022-08-21T09:04:22;10.82;;;2.35;;
59786;SDS011;45672;51.612;5.536;2022-08-21T09:06:58;7.75;;;2.20;;
59786;SDS011;45672;51.612;5.536;2022-08-21T09:09:51;9.20;;;2.30;;
59786;SDS011;45672;51.612;5.536;2022-08-21T09:28:39;6.65;;;2.28;;
59786;SDS011;45672;51.612;5.536;2022-08-21T09:31:12;6.22;;;1.95;;
59786;SDS011;45672;51.612;5.536;2022-08-21T09:33:47;6.65;;;2.10;;
59786;SDS011;45672;51.612;5.536;2022-08-21T09:36:12;6.60;;;2.28;;
59786;SDS011;45672;51.612;5.536;2022-08-21T09:38:52;6.82;;;2.03;;
59786;SDS011;45672;51.612;5.536;2022-08-21T09:41:25;6.40;;;2.33;;
59786;SDS011;45672;51.612;5.536;2022-08-21T09:43:52;4.75;;;2.00;;
59786;SDS011;45672;51.612;5.536;2022-08-21T09:46:22;4.75;;;1.88;;
59786;SDS011;45672;51.612;5.536;2022-08-21T09:48:50;8.98;;;1.70;;
59786;SDS011;45672;51.612;5.536;2022-08-21T09:51:28;6.55;;;1.90;;
59786;SDS011;45672;51.612;5.536;2022-08-21T09:59:27;6.78;;;1.92;;
59786;SDS011;45672;51.612;5.536;2022-08-21T10:01:58;5.90;;;1.60;;
59786;SDS011;45672;51.612;5.536;2022-08-21T10:04:31;4.80;;;1.80;;
59786;SDS011;45672;51.612;5.536;2022-08-21T10:07:11;5.53;;;1.83;;
59786;SDS011;45672;51.612;5.536;2022-08-21T10:09:39;4.33;;;1.80;;
59786;SDS011;45672;51.612;5.536;2022-08-21T10:12:22;5.63;;;1.70;;
59786;SDS011;45672;51.612;5.536;2022-08-21T10:29:14;6.43;;;1.70;;
59786;SDS011;45672;51.612;5.536;2022-08-21T10:43:16;4.60;;;2.08;;
59786;SDS011;45672;51.612;5.536;2022-08-21T10:48:43;8.27;;;2.10;;
59786;SDS011;45672;51.612;5.536;2022-08-21T10:51:16;5.55;;;2.35;;
59786;SDS011;45672;51.612;5.536;2022-08-21T10:56:40;7.97;;;2.40;;
59786;SDS011;45672;51.612;5.536;2022-08-21T11:01:48;8.50;;;2.30;;
59786;SDS011;45672;51.612;5.536;2022-08-21T11:04:25;5.03;;;2.13;;
59786;SDS011;45672;51.612;5.536;2022-08-21T11:06:59;9.27;;;2.17;;
59786;SDS011;45672;51.612;5.536;2022-08-21T11:09:31;9.23;;;2.20;;
59786;SDS011;45672;51.612;5.536;2022-08-21T11:12:05;11.30;;;2.65;;
59786;SDS011;45672;51.612;5.536;2022-08-21T11:17:10;6.47;;;2.60;;
59786;SDS011;45672;51.612;5.536;2022-08-21T11:19:47;6.15;;;2.30;;
59786;SDS011;45672;51.612;5.536;2022-08-21T11:22:18;7.85;;;2.47;;
59786;SDS011;45672;51.612;5.536;2022-08-21T11:24:54;6.18;;;2.13;;
59786;SDS011;45672;51.612;5.536;2022-08-21T11:27:26;5.30;;;1.60;;
59786;SDS011;45672;51.612;5.536;2022-08-21T11:29:58;5.53;;;1.88;;
59786;SDS011;45672;51.612;5.536;2022-08-21T11:38:33;8.32;;;1.80;;
59786;SDS011;45672;51.612;5.536;2022-08-21T11:43:41;5.20;;;1.95;;
59786;SDS011;45672;51.612;5.536;2022-08-21T11:46:31;7.22;;;2.65;;
59786;SDS011;45672;51.612;5.536;2022-08-21T11:49:22;5.60;;;2.03;;
59786;SDS011;45672;51.612;5.536;2022-08-21T11:52:52;6.90;;;2.30;;
59786;SDS011;45672;51.612;5.536;2022-08-21T11:55:05;5.22;;;2.00;;
59786;SDS011;45672;51.612;5.536;2022-08-21T11:57:54;9.20;;;2.30;;
59786;SDS011;45672;51.612;5.536;2022-08-21T12:00:26;8.02;;;2.45;;
59786;SDS011;45672;51.612;5.536;2022-08-21T12:02:59;5.68;;;1.90;;
59786;SDS011;45672;51.612;5.536;2022-08-21T12:05:38;4.97;;;1.60;;
59786;SDS011;45672;51.612;5.536;2022-08-21T12:08:11;5.40;;;1.80;;
59786;SDS011;45672;51.612;5.536;2022-08-21T12:10:46;5.70;;;1.92;;
59786;SDS011;45672;51.612;5.536;2022-08-21T12:13:25;5.03;;;2.15;;
59786;SDS011;45672;51.612;5.536;2022-08-21T12:16:04;3.53;;;1.73;;
59786;SDS011;45672;51.612;5.536;2022-08-21T12:18:34;4.80;;;1.70;;
59786;SDS011;45672;51.612;5.536;2022-08-21T12:21:04;4.45;;;1.70;;
59786;SDS011;45672;51.612;5.536;2022-08-21T12:23:57;5.07;;;1.73;;
59786;SDS011;45672;51.612;5.536;2022-08-21T12:26:29;6.78;;;1.83;;
59786;SDS011;45672;51.612;5.536;2022-08-21T12:31:49;7.80;;;1.80;;
59786;SDS011;45672;51.612;5.536;2022-08-21T12:34:20;9.75;;;1.88;;
59786;SDS011;45672;51.612;5.536;2022-08-21T12:36:53;5.75;;;1.92;;
59786;SDS011;45672;51.612;5.536;2022-08-21T12:39:24;6.65;;;1.83;;
59786;SDS011;45672;51.612;5.536;2022-08-21T12:42:05;5.97;;;1.90;;
59786;SDS011;45672;51.612;5.536;2022-08-21T12:44:42;8.57;;;1.63;;
59786;SDS011;45672;51.612;5.536;2022-08-21T12:47:31;4.20;;;1.50;;
59786;SDS011;45672;51.612;5.536;2022-08-21T12:52:33;4.47;;;1.67;;
59786;SDS011;45672;51.612;5.536;2022-08-21T12:55:01;5.57;;;1.60;;
59786;SDS011;45672;51.612;5.536;2022-08-21T12:57:27;5.55;;;1.77;;
59786;SDS011;45672;51.612;5.536;2022-08-21T12:59:59;8.05;;;1.70;;
59786;SDS011;45672;51.612;5.536;2022-08-21T13:02:28;5.38;;;1.48;;
59786;SDS011;45672;51.612;5.536;2022-08-21T13:04:56;7.18;;;1.50;;
59786;SDS011;45672;51.612;5.536;2022-08-21T13:07:28;7.55;;;1.85;;
59786;SDS011;45672;51.612;5.536;2022-08-21T13:09:57;7.65;;;1.90;;
59786;SDS011;45672;51.612;5.536;2022-08-21T13:12:25;7.43;;;1.75;;
59786;SDS011;45672;51.612;5.536;2022-08-21T13:14:51;5.32;;;1.50;;
59786;SDS011;45672;51.612;5.536;2022-08-21T13:17:20;5.32;;;1.85;;
59786;SDS011;45672;51.612;5.536;2022-08-21T13:20:21;7.32;;;1.50;;
59786;SDS011;45672;51.612;5.536;2022-08-21T13:22:54;6.28;;;1.88;;
59786;SDS011;45672;51.612;5.536;2022-08-21T13:25:20;4.82;;;1.67;;
59786;SDS011;45672;51.612;5.536;2022-08-21T13:28:00;5.43;;;1.40;;
59786;SDS011;45672;51.612;5.536;2022-08-21T13:30:30;4.88;;;1.80;;
59786;SDS011;45672;51.612;5.536;2022-08-21T13:32:57;3.28;;;1.40;;
59786;SDS011;45672;51.612;5.536;2022-08-21T13:35:26;5.80;;;1.67;;
59786;SDS011;45672;51.612;5.536;2022-08-21T13:37:56;3.65;;;1.65;;
59786;SDS011;45672;51.612;5.536;2022-08-21T13:40:28;5.55;;;1.75;;
59786;SDS011;45672;51.612;5.536;2022-08-21T13:42:56;5.47;;;1.80;;
59786;SDS011;45672;51.612;5.536;2022-08-21T13:45:27;5.80;;;1.42;;
59786;SDS011;45672;51.612;5.536;2022-08-21T13:47:56;7.88;;;1.88;;
59786;SDS011;45672;51.612;5.536;2022-08-21T13:50:22;8.93;;;1.88;;
59786;SDS011;45672;51.612;5.536;2022-08-21T13:52:54;6.05;;;1.67;;
59786;SDS011;45672;51.612;5.536;2022-08-21T13:55:39;9.48;;;1.95;;
59786;SDS011;45672;51.612;5.536;2022-08-21T13:58:07;5.72;;;1.88;;
59786;SDS011;45672;51.612;5.536;2022-08-21T14:00:37;8.95;;;2.17;;
59786;SDS011;45672;51.612;5.536;2022-08-21T14:03:09;7.65;;;1.80;;
59786;SDS011;45672;51.612;5.536;2022-08-21T14:05:44;4.88;;;1.80;;
59786;SDS011;45672;51.612;5.536;2022-08-21T14:08:12;7.32;;;2.05;;
59786;SDS011;45672;51.612;5.536;2022-08-21T14:10:51;5.63;;;1.25;;
59786;SDS011;45672;51.612;5.536;2022-08-21T14:13:23;7.28;;;2.05;;
59786;SDS011;45672;51.612;5.536;2022-08-21T14:15:56;7.40;;;2.20;;
59786;SDS011;45672;51.612;5.536;2022-08-21T14:18:23;6.78;;;1.95;;
59786;SDS011;45672;51.612;5.536;2022-08-21T14:20:50;6.50;;;2.05;;
59786;SDS011;45672;51.612;5.536;2022-08-21T14:23:25;7.30;;;2.17;;
59786;SDS011;45672;51.612;5.536;2022-08-21T14:25:52;5.53;;;2.00;;
59786;SDS011;45672;51.612;5.536;2022-08-21T14:28:23;6.90;;;2.42;;
59786;SDS011;45672;51.612;5.536;2022-08-21T14:30:51;9.23;;;2.13;;
59786;SDS011;45672;51.612;5.536;2022-08-21T14:33:35;6.45;;;1.60;;
59786;SDS011;45672;51.612;5.536;2022-08-21T14:36:01;12.85;;;1.75;;
59786;SDS011;45672;51.612;5.536;2022-08-21T14:38:27;5.57;;;1.92;;
59786;SDS011;45672;51.612;5.536;2022-08-21T14:40:59;6.53;;;1.92;;
59786;SDS011;45672;51.612;5.536;2022-08-21T14:43:30;7.22;;;2.85;;
59786;SDS011;45672;51.612;5.536;2022-08-21T14:45:56;7.95;;;2.05;;
59786;SDS011;45672;51.612;5.536;2022-08-21T14:48:21;6.13;;;2.08;;
59786;SDS011;45672;51.612;5.536;2022-08-21T14:50:47;5.20;;;1.80;;
59786;SDS011;45672;51.612;5.536;2022-08-21T14:53:12;7.03;;;1.95;;
59786;SDS011;45672;51.612;5.536;2022-08-21T14:55:37;5.32;;;1.67;;
59786;SDS011;45672;51.612;5.536;2022-08-21T14:58:22;6.22;;;1.80;;
59786;SDS011;45672;51.612;5.536;2022-08-21T15:00:52;7.10;;;1.92;;
59786;SDS011;45672;51.612;5.536;2022-08-21T15:03:19;5.68;;;1.70;;
59786;SDS011;45672;51.612;5.536;2022-08-21T15:05:46;6.38;;;1.70;;
59786;SDS011;45672;51.612;5.536;2022-08-21T15:08:12;7.28;;;2.00;;
59786;SDS011;45672;51.612;5.536;2022-08-21T15:10:37;6.97;;;1.83;;
59786;SDS011;45672;51.612;5.536;2022-08-21T15:13:02;9.20;;;1.75;;
59786;SDS011;45672;51.612;5.536;2022-08-21T15:15:29;9.20;;;2.28;;
59786;SDS011;45672;51.612;5.536;2022-08-21T15:17:59;6.65;;;2.08;;
59786;SDS011;45672;51.612;5.536;2022-08-21T15:20:24;5.88;;;1.70;;
59786;SDS011;45672;51.612;5.536;2022-08-21T15:22:49;5.30;;;1.50;;
59786;SDS011;45672;51.612;5.536;2022-08-21T15:25:15;8.10;;;1.75;;
59786;SDS011;45672;51.612;5.536;2022-08-21T15:27:40;4.80;;;1.77;;
59786;SDS011;45672;51.612;5.536;2022-08-21T15:30:06;5.35;;;2.20;;
59786;SDS011;45672;51.612;5.536;2022-08-21T15:32:31;4.90;;;1.77;;
59786;SDS011;45672;51.612;5.536;2022-08-21T15:34:57;7.65;;;2.20;;
59786;SDS011;45672;51.612;5.536;2022-08-21T15:37:24;6.85;;;1.90;;
59786;SDS011;45672;51.612;5.536;2022-08-21T15:39:50;7.13;;;1.88;;
59786;SDS011;45672;51.612;5.536;2022-08-21T15:42:17;7.00;;;1.73;;
59786;SDS011;45672;51.612;5.536;2022-08-21T15:44:43;5.65;;;1.83;;
59786;SDS011;45672;51.612;5.536;2022-08-21T15:47:11;7.38;;;2.00;;
59786;SDS011;45672;51.612;5.536;2022-08-21T15:49:39;6.25;;;2.55;;
59786;SDS011;45672;51.612;5.536;2022-08-21T15:52:07;5.88;;;2.20;;
59786;SDS011;45672;51.612;5.536;2022-08-21T15:54:33;5.45;;;2.10;;
59786;SDS011;45672;51.612;5.536;2022-08-21T15:56:59;6.57;;;1.90;;
59786;SDS011;45672;51.612;5.536;2022-08-21T15:59:24;6.72;;;2.25;;
59786;SDS011;45672;51.612;5.536;2022-08-21T16:01:51;4.93;;;2.42;;
59786;SDS011;45672;51.612;5.536;2022-08-21T16:04:24;5.45;;;2.00;;
59786;SDS011;45672;51.612;5.536;2022-08-21T16:06:55;4.47;;;1.98;;
59786;SDS011;45672;51.612;5.536;2022-08-21T16:09:20;7.65;;;2.50;;